Time;durP1;ratioP1;P1;durP2;ratioP2;P2;SDS_P1;SDS_P2;PMS_P1;PMS_P2;Temp;Humidity;BMP_temperature;BMP_pressure;BME280_temperature;BME280_humidity;BME280_pressure;Samples;Min_cycle;Max_cycle;Signal;HPM_P1;HPM_P2
2020/12/11 00:00:43;;;;;;;50.58;29.35;;;;;;;;;;5063428;28;20192;-58
2020/12/11 00:03:09;;;;;;;52.07;28.90;;;;;;;;;;5061112;28;20531;-57
2020/12/11 00:05:34;;;;;;;53.73;28.30;;;;;;;;;;5059040;28;20235;-58
2020/12/11 00:07:59;;;;;;;49.10;28.97;;;;;;;;;;5054462;28;20176;-57
2020/12/11 00:10:24;;;;;;;55.42;30.05;;;;;;;;;;5061650;28;20182;-58
2020/12/11 00:12:50;;;;;;;51.73;30.43;;;;;;;;;;5067523;28;20169;-57
2020/12/11 00:15:16;;;;;;;51.20;28.97;;;;;;;;;;5062085;28;20198;-57
2020/12/11 00:17:41;;;;;;;55.30;29.43;;;;;;;;;;5041192;28;20657;-58
2020/12/11 00:20:06;;;;;;;50.15;30.35;;;;;;;;;;5061749;28;20266;-58
2020/12/11 00:22:31;;;;;;;53.20;29.43;;;;;;;;;;5069555;28;20205;-57
2020/12/11 00:24:57;;;;;;;54.73;28.67;;;;;;;;;;5063113;28;20195;-58
2020/12/11 00:27:22;;;;;;;51.47;30.17;;;;;;;;;;5064308;28;20205;-58
2020/12/11 00:29:47;;;;;;;51.47;29.58;;;;;;;;;;5067130;28;20767;-58
2020/12/11 00:32:12;;;;;;;50.70;28.10;;;;;;;;;;5066764;28;20728;-58
2020/12/11 00:34:38;;;;;;;51.03;26.73;;;;;;;;;;5066634;28;20213;-58
2020/12/11 00:37:04;;;;;;;46.57;27.30;;;;;;;;;;5063413;28;20262;-58
2020/12/11 00:39:29;;;;;;;46.83;26.30;;;;;;;;;;5063952;28;20166;-58
2020/12/11 00:41:54;;;;;;;44.20;25.38;;;;;;;;;;5066042;28;20716;-58
2020/12/11 00:44:20;;;;;;;40.67;25.13;;;;;;;;;;5061502;28;20175;-58
2020/12/11 00:46:45;;;;;;;53.03;26.87;;;;;;;;;;5067508;28;20598;-58
2020/12/11 00:49:10;;;;;;;47.75;27.67;;;;;;;;;;5068120;28;20616;-58
2020/12/11 00:51:35;;;;;;;48.77;27.37;;;;;;;;;;5066291;28;20179;-57
2020/12/11 00:54:00;;;;;;;42.97;25.85;;;;;;;;;;5064005;28;20174;-57
2020/12/11 00:56:25;;;;;;;50.40;26.53;;;;;;;;;;5064546;28;20188;-58
2020/12/11 00:58:51;;;;;;;49.20;27.13;;;;;;;;;;5057616;28;20179;-57
2020/12/11 01:01:16;;;;;;;45.17;25.83;;;;;;;;;;5062247;28;20179;-57
2020/12/11 01:03:41;;;;;;;45.13;27.40;;;;;;;;;;5060916;28;20180;-58
2020/12/11 01:06:06;;;;;;;48.78;26.15;;;;;;;;;;5059934;28;20205;-58
2020/12/11 01:08:31;;;;;;;44.47;28.00;;;;;;;;;;5068368;28;20186;-58
2020/12/11 01:10:57;;;;;;;48.63;28.80;;;;;;;;;;5059089;28;20260;-57
2020/12/11 01:13:22;;;;;;;45.90;27.10;;;;;;;;;;5060295;28;20177;-57
2020/12/11 01:15:47;;;;;;;40.08;25.00;;;;;;;;;;5061674;28;20339;-57
2020/12/11 01:18:12;;;;;;;48.87;25.80;;;;;;;;;;5060348;28;20179;-58
2020/12/11 01:20:37;;;;;;;40.60;25.25;;;;;;;;;;5062153;28;20227;-58
2020/12/11 01:23:02;;;;;;;47.20;25.57;;;;;;;;;;5065555;28;20237;-58
2020/12/11 01:25:28;;;;;;;42.67;26.48;;;;;;;;;;5068028;28;20227;-57
2020/12/11 01:27:53;;;;;;;42.95;26.92;;;;;;;;;;5058137;28;20215;-57
2020/12/11 01:30:18;;;;;;;45.25;25.85;;;;;;;;;;5060859;28;20174;-58
2020/12/11 01:32:43;;;;;;;44.75;25.92;;;;;;;;;;5061902;28;20175;-58
2020/12/11 01:35:08;;;;;;;42.05;26.48;;;;;;;;;;5066972;28;20174;-58
2020/12/11 01:37:34;;;;;;;43.90;25.23;;;;;;;;;;5058371;28;20206;-58
2020/12/11 01:39:59;;;;;;;47.87;26.90;;;;;;;;;;5056735;28;20187;-58
2020/12/11 01:42:24;;;;;;;43.87;26.07;;;;;;;;;;5064612;28;20296;-57
2020/12/11 01:44:53;;;;;;;37.60;24.40;;;;;;;;;;5064051;28;20173;-57
2020/12/11 01:47:19;;;;;;;41.93;25.47;;;;;;;;;;5056361;28;20171;-58
2020/12/11 01:49:48;;;;;;;38.67;25.30;;;;;;;;;;5067190;28;21215;-57
2020/12/11 01:52:16;;;;;;;40.13;23.57;;;;;;;;;;5068593;28;20172;-58
2020/12/11 01:54:42;;;;;;;45.03;26.03;;;;;;;;;;5069340;28;20601;-57
2020/12/11 01:57:12;;;;;;;43.70;25.13;;;;;;;;;;5069016;28;20619;-58
2020/12/11 01:59:39;;;;;;;42.67;26.07;;;;;;;;;;5071186;28;20179;-58
2020/12/11 02:02:05;;;;;;;47.03;27.10;;;;;;;;;;5064903;28;20597;-57
2020/12/11 02:04:33;;;;;;;43.47;26.53;;;;;;;;;;5069191;28;21141;-57
2020/12/11 02:06:59;;;;;;;42.20;25.13;;;;;;;;;;5070018;28;20210;-58
2020/12/11 02:09:24;;;;;;;43.40;25.77;;;;;;;;;;5071238;28;20661;-58
2020/12/11 02:11:50;;;;;;;45.70;25.57;;;;;;;;;;5068689;28;20246;-57
2020/12/11 02:14:15;;;;;;;44.90;25.57;;;;;;;;;;5068880;28;20539;-57
2020/12/11 02:16:40;;;;;;;42.00;26.08;;;;;;;;;;5064921;28;20294;-58
2020/12/11 02:19:05;;;;;;;44.93;26.60;;;;;;;;;;5070871;28;20182;-58
2020/12/11 02:21:31;;;;;;;46.40;27.45;;;;;;;;;;5069954;28;20174;-57
2020/12/11 02:23:56;;;;;;;42.87;26.10;;;;;;;;;;5064337;28;20185;-57
2020/12/11 02:26:24;;;;;;;45.80;25.00;;;;;;;;;;5070912;28;20635;-57
2020/12/11 02:28:49;;;;;;;39.73;24.53;;;;;;;;;;5068980;28;20254;-58
2020/12/11 02:31:14;;;;;;;42.13;25.15;;;;;;;;;;5069482;28;20694;-58
2020/12/11 02:33:39;;;;;;;44.10;25.65;;;;;;;;;;5069467;28;20175;-58
2020/12/11 02:36:04;;;;;;;42.20;25.77;;;;;;;;;;5068122;28;20223;-58
2020/12/11 02:38:29;;;;;;;44.70;25.40;;;;;;;;;;5064697;28;20638;-58
2020/12/11 02:40:56;;;;;;;42.95;25.83;;;;;;;;;;5067784;28;20182;-58
2020/12/11 02:43:21;;;;;;;41.60;26.17;;;;;;;;;;5071077;28;20179;-57
2020/12/11 02:45:47;;;;;;;37.70;24.33;;;;;;;;;;5068214;28;20642;-57
2020/12/11 02:48:12;;;;;;;40.80;24.13;;;;;;;;;;5065188;28;20201;-58
2020/12/11 02:50:38;;;;;;;42.50;26.73;;;;;;;;;;5068782;28;20589;-57
2020/12/11 02:53:03;;;;;;;41.53;25.90;;;;;;;;;;5070569;28;20254;-58
2020/12/11 02:55:28;;;;;;;42.17;26.07;;;;;;;;;;5067396;28;20266;-57
2020/12/11 02:57:53;;;;;;;39.08;25.10;;;;;;;;;;5068810;28;20191;-58
2020/12/11 03:00:18;;;;;;;41.83;26.50;;;;;;;;;;5070386;28;20646;-57
2020/12/11 03:02:43;;;;;;;41.95;25.60;;;;;;;;;;5068306;28;20224;-58
2020/12/11 03:05:08;;;;;;;38.30;24.38;;;;;;;;;;5070362;28;20198;-58
2020/12/11 03:07:34;;;;;;;40.20;24.02;;;;;;;;;;5068997;28;20627;-58
2020/12/11 03:09:59;;;;;;;39.30;24.25;;;;;;;;;;5066766;28;20170;-58
2020/12/11 03:12:24;;;;;;;40.53;23.77;;;;;;;;;;5066944;28;20182;-58
2020/12/11 03:14:49;;;;;;;40.88;24.23;;;;;;;;;;5073190;28;20194;-58
2020/12/11 03:17:14;;;;;;;41.00;25.30;;;;;;;;;;5067438;28;20218;-58
2020/12/11 03:19:39;;;;;;;41.13;24.67;;;;;;;;;;5066676;28;20166;-58
2020/12/11 03:22:04;;;;;;;38.33;24.73;;;;;;;;;;5066940;28;20270;-58
2020/12/11 03:24:30;;;;;;;40.45;24.65;;;;;;;;;;5070354;28;20168;-58
2020/12/11 03:26:55;;;;;;;33.90;23.42;;;;;;;;;;5065950;28;20230;-57
2020/12/11 03:29:20;;;;;;;37.80;24.60;;;;;;;;;;5067134;28;20188;-58
2020/12/11 03:31:45;;;;;;;40.13;23.83;;;;;;;;;;5069186;28;20646;-57
2020/12/11 03:34:10;;;;;;;35.58;23.88;;;;;;;;;;5066941;28;20186;-58
2020/12/11 03:36:35;;;;;;;36.10;24.55;;;;;;;;;;5067478;28;20176;-58
2020/12/11 03:39:00;;;;;;;40.05;25.80;;;;;;;;;;5066807;28;20707;-58
2020/12/11 03:41:26;;;;;;;41.07;26.03;;;;;;;;;;5068203;28;20254;-58
2020/12/11 03:43:51;;;;;;;39.90;23.75;;;;;;;;;;5067958;28;20172;-58
2020/12/11 03:46:17;;;;;;;40.63;25.10;;;;;;;;;;5065130;28;20200;-57
2020/12/11 03:48:42;;;;;;;36.33;23.30;;;;;;;;;;5062656;28;20641;-58
2020/12/11 03:51:14;;;;;;;38.85;24.58;;;;;;;;;;5061362;28;20601;-57
2020/12/11 03:53:39;;;;;;;40.47;24.83;;;;;;;;;;5065277;28;20712;-57
2020/12/11 03:56:04;;;;;;;37.38;23.35;;;;;;;;;;5060950;28;21234;-57
2020/12/11 03:58:29;;;;;;;35.83;23.10;;;;;;;;;;5060836;28;20229;-57
2020/12/11 04:00:54;;;;;;;39.25;23.80;;;;;;;;;;5061575;28;20618;-57
2020/12/11 04:03:19;;;;;;;38.58;23.73;;;;;;;;;;5063055;28;20707;-58
2020/12/11 04:05:44;;;;;;;40.60;26.25;;;;;;;;;;5068521;28;20203;-57
2020/12/11 04:08:10;;;;;;;37.60;24.00;;;;;;;;;;5063562;28;20210;-57
2020/12/11 04:10:35;;;;;;;37.83;23.87;;;;;;;;;;5067219;28;20597;-57
2020/12/11 04:13:00;;;;;;;42.10;24.93;;;;;;;;;;5065786;28;20195;-57
2020/12/11 04:15:25;;;;;;;36.13;23.80;;;;;;;;;;5065868;28;20638;-58
2020/12/11 04:17:50;;;;;;;38.60;24.48;;;;;;;;;;5066351;28;20184;-57
2020/12/11 04:20:15;;;;;;;35.08;23.73;;;;;;;;;;5066888;28;20218;-58
2020/12/11 04:22:40;;;;;;;37.40;23.27;;;;;;;;;;5061379;28;20660;-58
2020/12/11 04:25:06;;;;;;;41.33;23.25;;;;;;;;;;5065992;28;20200;-58
2020/12/11 04:27:31;;;;;;;41.85;25.70;;;;;;;;;;5063809;28;20205;-57
2020/12/11 04:29:56;;;;;;;40.17;23.05;;;;;;;;;;5060356;28;21680;-58
2020/12/11 04:32:21;;;;;;;37.78;24.02;;;;;;;;;;5052278;28;20264;-57
2020/12/11 04:34:46;;;;;;;40.92;25.05;;;;;;;;;;5061025;28;20179;-57
2020/12/11 04:37:15;;;;;;;38.80;23.73;;;;;;;;;;5054350;28;20164;-58
2020/12/11 04:39:40;;;;;;;41.10;24.77;;;;;;;;;;5056121;28;20168;-57
2020/12/11 04:42:06;;;;;;;41.45;25.38;;;;;;;;;;5064652;28;20640;-57
2020/12/11 04:44:31;;;;;;;40.00;23.83;;;;;;;;;;5063891;28;20184;-57
2020/12/11 04:47:03;;;;;;;41.30;24.40;;;;;;;;;;5050611;28;20209;-57
2020/12/11 04:49:28;;;;;;;39.93;25.20;;;;;;;;;;5054257;28;20185;-58
2020/12/11 04:51:55;;;;;;;41.77;26.30;;;;;;;;;;5058109;28;20697;-58
2020/12/11 04:54:21;;;;;;;41.30;24.83;;;;;;;;;;5060146;28;20639;-58
2020/12/11 04:56:48;;;;;;;38.87;25.43;;;;;;;;;;5057283;28;20621;-58
2020/12/11 04:59:13;;;;;;;45.60;25.53;;;;;;;;;;5064278;28;20218;-58
2020/12/11 05:01:38;;;;;;;37.42;25.30;;;;;;;;;;5064356;28;21175;-58
2020/12/11 05:04:03;;;;;;;41.28;25.95;;;;;;;;;;5059744;28;20202;-57
2020/12/11 05:06:28;;;;;;;40.90;25.90;;;;;;;;;;5068767;28;20558;-58
2020/12/11 05:09:23;;;;;;;43.70;26.50;;;;;;;;;;5063777;28;20250;-58
2020/12/11 05:11:48;;;;;;;47.13;26.50;;;;;;;;;;5052463;28;20187;-58
2020/12/11 05:14:24;;;;;;;41.93;26.37;;;;;;;;;;5068549;28;20604;-57
2020/12/11 05:16:54;;;;;;;46.03;26.77;;;;;;;;;;5068989;28;20215;-57
2020/12/11 05:19:19;;;;;;;46.30;27.40;;;;;;;;;;5054183;28;21065;-57
2020/12/11 05:21:44;;;;;;;48.77;28.50;;;;;;;;;;5066792;28;20696;-57
2020/12/11 05:24:09;;;;;;;47.33;27.67;;;;;;;;;;5072147;28;20182;-57
2020/12/11 05:26:35;;;;;;;52.60;30.92;;;;;;;;;;5072502;28;20202;-58
2020/12/11 05:29:01;;;;;;;45.80;29.40;;;;;;;;;;5057991;28;20261;-58
2020/12/11 05:31:27;;;;;;;42.03;28.30;;;;;;;;;;5060942;28;21000;-58
2020/12/11 05:34:11;;;;;;;47.77;30.40;;;;;;;;;;5059067;28;20372;-59
2020/12/11 05:36:47;;;;;;;50.40;30.17;;;;;;;;;;5058311;28;20179;-58
2020/12/11 05:39:32;;;;;;;47.03;29.43;;;;;;;;;;5056866;28;20633;-58
2020/12/11 05:41:57;;;;;;;50.10;31.10;;;;;;;;;;5060051;28;20608;-58
2020/12/11 05:44:24;;;;;;;46.17;28.93;;;;;;;;;;5058224;28;20645;-58
2020/12/11 05:46:49;;;;;;;48.10;29.47;;;;;;;;;;5056819;28;20203;-59
2020/12/11 05:49:25;;;;;;;53.33;31.40;;;;;;;;;;5062836;28;20740;-57
2020/12/11 05:51:59;;;;;;;46.33;29.90;;;;;;;;;;5053211;28;20175;-58
2020/12/11 05:54:24;;;;;;;49.40;30.07;;;;;;;;;;5063471;28;21224;-58
2020/12/11 05:56:50;;;;;;;47.20;29.97;;;;;;;;;;5058403;28;20676;-59
2020/12/11 05:59:17;;;;;;;53.57;32.90;;;;;;;;;;5057912;28;20202;-58
2020/12/11 06:01:42;;;;;;;52.63;30.47;;;;;;;;;;5048977;28;20180;-58
2020/12/11 06:04:09;;;;;;;53.43;29.23;;;;;;;;;;5049621;28;20934;-58
2020/12/11 06:06:34;;;;;;;51.40;31.83;;;;;;;;;;5058755;28;20207;-56
2020/12/11 06:09:01;;;;;;;50.63;31.23;;;;;;;;;;5057522;28;20653;-57
2020/12/11 06:11:33;;;;;;;54.87;30.97;;;;;;;;;;5058430;28;20166;-58
2020/12/11 06:13:59;;;;;;;53.70;32.20;;;;;;;;;;5051722;28;20675;-57
2020/12/11 06:16:25;;;;;;;53.80;30.80;;;;;;;;;;5056355;28;20695;-56
2020/12/11 06:18:53;;;;;;;56.47;31.07;;;;;;;;;;5058076;28;21279;-56
2020/12/11 06:21:19;;;;;;;55.77;33.03;;;;;;;;;;5058049;28;20188;-57
2020/12/11 06:23:44;;;;;;;58.00;31.33;;;;;;;;;;5058946;28;21005;-56
2020/12/11 06:26:13;;;;;;;52.00;32.20;;;;;;;;;;5060018;28;20203;-56
2020/12/11 06:28:42;;;;;;;57.50;34.57;;;;;;;;;;5059390;28;20202;-56
2020/12/11 06:31:14;;;;;;;60.90;33.80;;;;;;;;;;5059140;28;20649;-57
2020/12/11 06:33:44;;;;;;;62.17;33.20;;;;;;;;;;5043658;28;20596;-56
2020/12/11 06:36:09;;;;;;;54.33;31.00;;;;;;;;;;5040803;28;21115;-56
2020/12/11 06:38:45;;;;;;;67.67;34.17;;;;;;;;;;5038832;28;20582;-59
2020/12/11 06:41:12;;;;;;;60.97;33.73;;;;;;;;;;5038740;28;20596;-59
2020/12/11 06:43:41;;;;;;;59.70;34.13;;;;;;;;;;5041875;28;20610;-59
2020/12/11 06:46:29;;;;;;;62.73;33.60;;;;;;;;;;5040702;28;20629;-58
2020/12/11 06:49:03;;;;;;;66.00;34.40;;;;;;;;;;5034711;28;20607;-56
2020/12/11 06:51:29;;;;;;;63.83;32.53;;;;;;;;;;5040152;28;20588;-58
2020/12/11 06:53:54;;;;;;;59.28;33.08;;;;;;;;;;5038609;28;20721;-58
2020/12/11 06:56:51;;;;;;;61.88;32.80;;;;;;;;;;5040513;28;20185;-58
2020/12/11 06:59:20;;;;;;;58.20;32.53;;;;;;;;;;5015901;28;20186;-57
2020/12/11 07:01:46;;;;;;;62.10;31.43;;;;;;;;;;5052912;28;20623;-56
2020/12/11 07:04:11;;;;;;;60.55;33.25;;;;;;;;;;5056991;28;20610;-56
2020/12/11 07:06:36;;;;;;;64.72;32.45;;;;;;;;;;5059302;28;20289;-57
2020/12/11 07:09:04;;;;;;;69.03;35.42;;;;;;;;;;5045115;28;20232;-57
2020/12/11 07:11:30;;;;;;;69.10;36.40;;;;;;;;;;5052652;28;20265;-57
2020/12/11 07:13:55;;;;;;;61.40;33.43;;;;;;;;;;5059917;28;20666;-56
2020/12/11 07:16:20;;;;;;;59.10;35.00;;;;;;;;;;5041402;28;527394;-59
2020/12/11 07:18:46;;;;;;;67.93;33.90;;;;;;;;;;5058933;28;20186;-56
2020/12/11 07:21:12;;;;;;;68.20;36.03;;;;;;;;;;5058918;28;20185;-58
2020/12/11 07:23:37;;;;;;;65.53;34.17;;;;;;;;;;5058350;28;20688;-57
2020/12/11 07:26:03;;;;;;;63.73;35.77;;;;;;;;;;5041940;28;20651;-56
2020/12/11 07:28:28;;;;;;;61.80;34.30;;;;;;;;;;5062411;28;20180;-58
2020/12/11 07:30:53;;;;;;;59.83;33.50;;;;;;;;;;5058448;28;20748;-56
2020/12/11 07:33:18;;;;;;;67.40;35.80;;;;;;;;;;5055562;28;20185;-56
2020/12/11 07:35:48;;;;;;;56.00;33.23;;;;;;;;;;5043621;28;20261;-56
2020/12/11 07:38:13;;;;;;;61.17;34.43;;;;;;;;;;5064670;28;20852;-56
2020/12/11 07:40:38;;;;;;;59.40;34.17;;;;;;;;;;5062030;28;20601;-58
2020/12/11 07:43:04;;;;;;;61.67;34.20;;;;;;;;;;5044597;28;20179;-57
2020/12/11 07:45:32;;;;;;;59.80;32.53;;;;;;;;;;5042577;28;20236;-56
2020/12/11 07:47:57;;;;;;;59.03;32.80;;;;;;;;;;5060047;28;20522;-57
2020/12/11 07:50:23;;;;;;;60.73;33.47;;;;;;;;;;5064800;28;20601;-59
2020/12/11 07:52:50;;;;;;;56.13;31.90;;;;;;;;;;5054930;28;20179;-57
2020/12/11 07:55:15;;;;;;;60.67;30.80;;;;;;;;;;5058994;28;21207;-56
2020/12/11 07:57:40;;;;;;;68.35;34.38;;;;;;;;;;5057754;28;20690;-56
2020/12/11 08:00:06;;;;;;;56.83;33.57;;;;;;;;;;5059217;28;20262;-56
2020/12/11 08:02:34;;;;;;;58.13;33.90;;;;;;;;;;5059663;28;20178;-56
2020/12/11 08:04:59;;;;;;;59.03;32.97;;;;;;;;;;5059543;28;20607;-56
2020/12/11 08:07:28;;;;;;;55.77;31.40;;;;;;;;;;5058428;28;21126;-56
2020/12/11 08:09:53;;;;;;;57.00;31.50;;;;;;;;;;5057546;28;20645;-56
2020/12/11 08:12:30;;;;;;;54.50;32.10;;;;;;;;;;5058655;28;20603;-56
2020/12/11 08:14:56;;;;;;;50.23;29.57;;;;;;;;;;5043417;28;20578;-57
2020/12/11 08:17:21;;;;;;;49.63;30.63;;;;;;;;;;5040052;28;20645;-56
2020/12/11 08:19:55;;;;;;;55.00;31.60;;;;;;;;;;5038350;28;20203;-58
2020/12/11 08:22:21;;;;;;;48.73;29.77;;;;;;;;;;5039880;28;20616;-58
2020/12/11 08:24:46;;;;;;;52.95;32.90;;;;;;;;;;5039350;28;21217;-56
2020/12/11 08:27:21;;;;;;;52.20;30.30;;;;;;;;;;5038184;28;20206;-56
2020/12/11 08:30:06;;;;;;;49.63;28.37;;;;;;;;;;5039770;28;20163;-56
2020/12/11 08:32:32;;;;;;;57.97;29.40;;;;;;;;;;5037920;28;20937;-56
2020/12/11 08:34:57;;;;;;;51.50;30.80;;;;;;;;;;5040960;28;20717;-56
2020/12/11 08:37:22;;;;;;;52.47;30.87;;;;;;;;;;5037693;28;20183;-57
2020/12/11 08:39:47;;;;;;;47.83;30.43;;;;;;;;;;5041612;28;20247;-57
2020/12/11 08:42:26;;;;;;;54.15;31.20;;;;;;;;;;5039880;28;20191;-57
2020/12/11 08:45:22;;;;;;;42.10;28.50;;;;;;;;;;5048266;28;20183;-57
2020/12/11 08:48:06;;;;;;;52.87;28.97;;;;;;;;;;5059555;28;21156;-57
2020/12/11 08:50:44;;;;;;;49.40;31.67;;;;;;;;;;5057787;28;20567;-57
2020/12/11 08:53:11;;;;;;;45.13;28.53;;;;;;;;;;5057805;28;21194;-56
2020/12/11 08:55:37;;;;;;;46.40;28.80;;;;;;;;;;5057886;28;20633;-57
2020/12/11 08:58:02;;;;;;;47.17;31.00;;;;;;;;;;5037495;28;20723;-59
2020/12/11 09:00:27;;;;;;;49.60;30.77;;;;;;;;;;5040969;28;20625;-56
2020/12/11 09:02:52;;;;;;;49.83;30.70;;;;;;;;;;5039436;28;20196;-57
2020/12/11 09:05:18;;;;;;;50.20;30.53;;;;;;;;;;5037562;28;20680;-56
2020/12/11 09:07:43;;;;;;;49.10;29.40;;;;;;;;;;5051794;28;20178;-57
2020/12/11 09:10:08;;;;;;;41.72;28.98;;;;;;;;;;5057650;28;20178;-56
2020/12/11 09:12:36;;;;;;;42.72;28.38;;;;;;;;;;5058288;28;20172;-57
2020/12/11 09:15:04;;;;;;;43.20;28.33;;;;;;;;;;5057467;28;20678;-56
2020/12/11 09:17:29;;;;;;;43.53;29.60;;;;;;;;;;5057390;28;20668;-57
2020/12/11 09:19:54;;;;;;;42.80;28.05;;;;;;;;;;5058964;28;20605;-56
2020/12/11 09:22:19;;;;;;;37.17;26.83;;;;;;;;;;5057507;28;20177;-58
2020/12/11 09:24:45;;;;;;;38.53;26.60;;;;;;;;;;5059069;28;20159;-58
2020/12/11 09:27:12;;;;;;;37.05;26.80;;;;;;;;;;5039507;28;20200;-56
2020/12/11 09:29:41;;;;;;;38.03;26.13;;;;;;;;;;5038735;28;20197;-56
2020/12/11 09:32:07;;;;;;;42.10;26.43;;;;;;;;;;5039105;28;20570;-56
2020/12/11 09:34:34;;;;;;;37.30;26.17;;;;;;;;;;5037424;28;20570;-56
2020/12/11 09:37:00;;;;;;;44.83;28.43;;;;;;;;;;5038504;28;20701;-56
2020/12/11 09:39:25;;;;;;;40.20;25.87;;;;;;;;;;5038842;28;20586;-56
2020/12/11 09:41:58;;;;;;;40.17;27.03;;;;;;;;;;5037503;28;20581;-57
2020/12/11 09:55:12;;;;;;;43.10;27.60;;;;;;;;;;5059113;28;20652;-56
2020/12/11 09:57:37;;;;;;;44.80;27.17;;;;;;;;;;5054984;28;21073;-56
2020/12/11 10:00:05;;;;;;;38.33;27.02;;;;;;;;;;5058409;28;20586;-56
2020/12/11 10:05:01;;;;;;;39.53;28.30;;;;;;;;;;5056963;28;20569;-56
2020/12/11 10:07:26;;;;;;;41.33;28.03;;;;;;;;;;5058797;28;20566;-57
2020/12/11 10:09:51;;;;;;;36.90;27.15;;;;;;;;;;5056984;28;20179;-57
2020/12/11 10:12:19;;;;;;;40.73;27.80;;;;;;;;;;5062492;28;20168;-57
2020/12/11 10:14:48;;;;;;;39.13;27.37;;;;;;;;;;5060590;28;20217;-58
2020/12/11 10:17:14;;;;;;;37.87;27.70;;;;;;;;;;5060381;28;20723;-57
2020/12/11 10:19:39;;;;;;;42.37;28.03;;;;;;;;;;5061321;28;20668;-57
2020/12/11 10:22:04;;;;;;;38.93;27.37;;;;;;;;;;5059309;28;20688;-58
2020/12/11 10:24:29;;;;;;;35.47;26.48;;;;;;;;;;5062227;28;20177;-59
2020/12/11 10:26:55;;;;;;;36.22;25.23;;;;;;;;;;5060277;28;20200;-57
2020/12/11 10:29:20;;;;;;;37.88;26.95;;;;;;;;;;5062156;28;20868;-57
2020/12/11 10:31:45;;;;;;;40.27;27.60;;;;;;;;;;5060070;28;20187;-57
2020/12/11 10:34:14;;;;;;;38.57;27.33;;;;;;;;;;5060429;28;20571;-57
2020/12/11 10:36:39;;;;;;;36.17;27.30;;;;;;;;;;5060391;28;20275;-57
2020/12/11 10:39:05;;;;;;;38.17;26.57;;;;;;;;;;5061027;28;20708;-58
2020/12/11 10:41:31;;;;;;;39.97;26.27;;;;;;;;;;5063556;28;20589;-57
2020/12/11 10:43:56;;;;;;;37.47;25.47;;;;;;;;;;5061629;28;20664;-57
2020/12/11 10:46:21;;;;;;;41.03;28.00;;;;;;;;;;5058318;28;20341;-57
2020/12/11 10:48:46;;;;;;;36.93;25.43;;;;;;;;;;5059975;28;20178;-58
2020/12/11 10:51:18;;;;;;;30.50;24.03;;;;;;;;;;5061688;28;20530;-58
2020/12/11 10:53:43;;;;;;;37.60;26.63;;;;;;;;;;5059900;28;20313;-58
2020/12/11 10:56:09;;;;;;;36.23;25.57;;;;;;;;;;5059749;28;20696;-57
2020/12/11 10:58:35;;;;;;;36.57;25.67;;;;;;;;;;5059660;28;20190;-58
2020/12/11 11:01:03;;;;;;;34.37;25.57;;;;;;;;;;5061485;28;20176;-58
2020/12/11 11:03:29;;;;;;;33.53;24.90;;;;;;;;;;5059553;28;20623;-58
2020/12/11 11:05:56;;;;;;;33.87;24.30;;;;;;;;;;5061596;28;20702;-58
2020/12/11 11:08:23;;;;;;;33.47;24.97;;;;;;;;;;5054395;28;20599;-57
2020/12/11 11:10:49;;;;;;;32.23;24.20;;;;;;;;;;5041130;28;20559;-57
2020/12/11 11:15:49;;;;;;;38.73;26.30;;;;;;;;;;5039340;28;20575;-58
2020/12/11 11:18:28;;;;;;;32.67;23.80;;;;;;;;;;5041244;28;20612;-58
2020/12/11 11:28:30;;;;;;;31.63;23.13;;;;;;;;;;5041123;28;20257;-57
2020/12/11 11:30:55;;;;;;;32.53;22.23;;;;;;;;;;5042738;28;20617;-56
2020/12/11 11:33:20;;;;;;;30.77;23.25;;;;;;;;;;5040250;28;20183;-57
2020/12/11 11:35:46;;;;;;;32.57;23.83;;;;;;;;;;5040793;28;20263;-57
2020/12/11 11:38:12;;;;;;;30.00;22.47;;;;;;;;;;5039244;28;20512;-57
2020/12/11 11:40:39;;;;;;;29.17;22.83;;;;;;;;;;5040696;28;20577;-57
2020/12/11 11:43:05;;;;;;;33.30;23.50;;;;;;;;;;5038863;28;20570;-57
2020/12/11 11:45:33;;;;;;;34.67;23.63;;;;;;;;;;5041655;28;21046;-57
2020/12/11 11:47:59;;;;;;;32.27;24.67;;;;;;;;;;5040654;28;20573;-58
2020/12/11 11:50:40;;;;;;;31.40;22.92;;;;;;;;;;5038739;28;20563;-57
2020/12/11 11:53:13;;;;;;;30.60;22.10;;;;;;;;;;5038649;28;20220;-57
2020/12/11 11:55:39;;;;;;;28.97;22.27;;;;;;;;;;5039626;28;20625;-57
2020/12/11 11:58:04;;;;;;;33.30;23.20;;;;;;;;;;5040272;28;20591;-57
2020/12/11 12:00:30;;;;;;;35.03;25.15;;;;;;;;;;5038384;28;20589;-57
2020/12/11 12:02:55;;;;;;;36.25;26.63;;;;;;;;;;5038368;28;20268;-59
2020/12/11 12:05:20;;;;;;;32.67;26.88;;;;;;;;;;5039881;28;20179;-58
2020/12/11 12:07:45;;;;;;;34.80;27.90;;;;;;;;;;5039335;28;20171;-58
2020/12/11 12:10:10;;;;;;;39.70;28.02;;;;;;;;;;5040464;28;20172;-58
2020/12/11 12:12:38;;;;;;;37.37;26.60;;;;;;;;;;5038263;28;20607;-59
2020/12/11 12:15:04;;;;;;;39.03;27.40;;;;;;;;;;5040145;28;20631;-57
2020/12/11 12:17:34;;;;;;;34.17;26.53;;;;;;;;;;5038254;28;20749;-58
2020/12/11 12:20:05;;;;;;;34.47;25.47;;;;;;;;;;5039286;28;20702;-58
2020/12/11 12:23:15;;;;;;;40.43;27.40;;;;;;;;;;5039655;28;20575;-58
2020/12/11 12:30:24;;;;;;;40.70;26.33;;;;;;;;;;5038007;28;20562;-58
2020/12/11 12:38:16;;;;;;;30.97;23.23;;;;;;;;;;5038070;28;20575;-57
2020/12/11 12:43:25;;;;;;;32.87;23.20;;;;;;;;;;5038125;28;20691;-57
2020/12/11 12:45:50;;;;;;;29.30;23.67;;;;;;;;;;5038903;28;20652;-57
2020/12/11 12:48:15;;;;;;;34.13;26.10;;;;;;;;;;5039715;28;20247;-56
2020/12/11 12:50:40;;;;;;;37.07;26.10;;;;;;;;;;5037869;28;20164;-57
2020/12/11 12:53:05;;;;;;;36.30;25.47;;;;;;;;;;5039519;28;20178;-58
2020/12/11 12:56:30;;;;;;;39.92;28.50;;;;;;;;;;5038861;28;20171;-58
2020/12/11 12:58:30;;;;;;;38.03;28.00;;;;;;;;;;5037436;28;20196;-58
2020/12/11 13:01:04;;;;;;;40.47;28.73;;;;;;;;;;5039659;28;21163;-58
2020/12/11 13:06:13;;;;;;;49.47;32.07;;;;;;;;;;5038323;28;20619;-58
2020/12/11 13:08:38;;;;;;;46.37;30.07;;;;;;;;;;5039641;28;20599;-57
2020/12/11 13:11:04;;;;;;;38.90;27.60;;;;;;;;;;5037621;28;20181;-57
2020/12/11 13:13:29;;;;;;;38.13;29.00;;;;;;;;;;5039114;28;20540;-57
2020/12/11 13:15:54;;;;;;;40.83;29.05;;;;;;;;;;5037576;28;20270;-58
2020/12/11 13:18:19;;;;;;;35.58;27.90;;;;;;;;;;5039468;28;20175;-57
2020/12/11 13:20:45;;;;;;;38.72;28.52;;;;;;;;;;5038529;28;20241;-57
2020/12/11 13:26:14;;;;;;;37.47;27.60;;;;;;;;;;5037419;28;20649;-58
2020/12/11 13:28:40;;;;;;;42.30;27.37;;;;;;;;;;5039004;28;20583;-58
2020/12/11 13:31:05;;;;;;;40.87;28.37;;;;;;;;;;5037287;28;21058;-58
2020/12/11 13:33:30;;;;;;;42.87;27.30;;;;;;;;;;5038589;28;20178;-58
2020/12/11 13:35:55;;;;;;;38.23;28.43;;;;;;;;;;5039201;28;20210;-57
2020/12/11 13:38:20;;;;;;;43.00;29.10;;;;;;;;;;5037444;28;20222;-58
2020/12/11 13:40:45;;;;;;;38.65;28.65;;;;;;;;;;5038796;28;20528;-58
2020/12/11 13:43:11;;;;;;;36.65;28.50;;;;;;;;;;5037428;28;20171;-58
2020/12/11 13:45:36;;;;;;;38.43;29.17;;;;;;;;;;5043091;28;20261;-58
2020/12/11 13:48:01;;;;;;;37.65;28.50;;;;;;;;;;5041275;28;20162;-58
2020/12/11 13:50:26;;;;;;;33.47;25.60;;;;;;;;;;5042630;28;20255;-59
2020/12/11 13:52:51;;;;;;;38.38;27.35;;;;;;;;;;5040972;28;20257;-58
2020/12/11 13:55:16;;;;;;;35.70;26.13;;;;;;;;;;5042867;28;20175;-58
2020/12/11 13:57:41;;;;;;;33.58;25.80;;;;;;;;;;5040664;28;20216;-58
2020/12/11 14:00:07;;;;;;;34.80;26.07;;;;;;;;;;5043787;28;20184;-58
2020/12/11 14:02:32;;;;;;;35.30;26.10;;;;;;;;;;5040814;28;20175;-59
2020/12/11 14:04:57;;;;;;;39.53;27.67;;;;;;;;;;5042705;28;20172;-57
2020/12/11 14:07:23;;;;;;;33.05;25.83;;;;;;;;;;5040246;28;20201;-57
2020/12/11 14:09:48;;;;;;;36.47;26.52;;;;;;;;;;5042483;28;20630;-56
2020/12/11 14:12:13;;;;;;;31.03;25.30;;;;;;;;;;5043254;28;20168;-57
2020/12/11 14:14:38;;;;;;;33.80;24.97;;;;;;;;;;5042275;28;20631;-57
2020/12/11 14:17:05;;;;;;;29.50;22.43;;;;;;;;;;5043597;28;20678;-57
2020/12/11 14:20:07;;;;;;;29.90;23.37;;;;;;;;;;5042194;28;20196;-57
2020/12/11 14:22:51;;;;;;;28.70;23.77;;;;;;;;;;5043295;28;20689;-57
2020/12/11 14:25:16;;;;;;;27.73;22.40;;;;;;;;;;5041014;28;20657;-57
2020/12/11 14:27:42;;;;;;;33.37;24.27;;;;;;;;;;5041997;28;20999;-58
2020/12/11 14:30:07;;;;;;;31.17;22.80;;;;;;;;;;5070798;28;20195;-57
2020/12/11 14:32:32;;;;;;;24.55;20.23;;;;;;;;;;5072064;28;20179;-57
2020/12/11 14:34:57;;;;;;;25.67;19.10;;;;;;;;;;5069903;28;20196;-57
2020/12/11 14:37:22;;;;;;;24.55;18.92;;;;;;;;;;5069628;28;20194;-57
2020/12/11 14:39:50;;;;;;;24.30;19.90;;;;;;;;;;5071533;28;20186;-58
2020/12/11 14:42:15;;;;;;;29.03;19.90;;;;;;;;;;5070030;28;20180;-58
2020/12/11 14:44:40;;;;;;;22.50;18.85;;;;;;;;;;5070535;28;20596;-57
2020/12/11 14:47:05;;;;;;;24.00;18.27;;;;;;;;;;5071564;28;20191;-57
2020/12/11 14:49:30;;;;;;;20.67;17.37;;;;;;;;;;5071645;28;20210;-57
2020/12/11 14:51:55;;;;;;;21.93;17.30;;;;;;;;;;5071336;28;20156;-57
2020/12/11 14:54:21;;;;;;;21.00;17.80;;;;;;;;;;5070504;28;20178;-58
2020/12/11 14:56:47;;;;;;;20.73;17.00;;;;;;;;;;5068667;28;20211;-58